AirNav   Pilot Hours Calculator
 
 1223 users online  

CL35 Warner Springs Gliderport
Warner Springs, California, USA

GOING TO WARNER SPRINGS?


FAA INFORMATION EFFECTIVE 28 MARCH 2019

Location

FAA Identifier: CL35
Lat/Long: 33-17-04.2100N / 116-40-10.7650W
33-17.070167N / 116-40.179417W
33.2845028 / -116.6696569
(estimated)
Elevation: 2880 ft. / 878 m (estimated)
Variation: 13E (1985)
From city: 2 miles E of WARNER SPRINGS, CA
Time zone: UTC -7 (UTC -8 during Standard Time)
Zip code: 92086

Gliderport Operations

Gliderport use: Private use. Permission required prior to landing
Activation date: 10/1984
Control tower: no
ARTCC: LOS ANGELES CENTER
FSS: SAN DIEGO FLIGHT SERVICE STATION
Attendance: 0900-1700
Wind indicator: yes
Segmented circle: yes
Landing fee: yes

Gliderport Communications

UNICOM: 122.8
WX AWOS-3P at L08 (18 nm E): 126.575 (760-767-3308)
WX ASOS at RNM (19 nm SW): 132.025 (760-789-0736)

Nearby radio navigation aids

VOR radial/distance  VOR name  Freq  Var
JLIr319/9.6JULIAN VORTAC114.0015E
TRMr218/32.8THERMAL VORTAC116.2013E
PSPr186/37.1PALM SPRINGS VORTAC115.5013E
OCNr071/37.6OCEANSIDE VORTAC115.3015E
HDFr125/(39.2)HOMELAND VOR113.4014E

Gliderport Services

Runway Information

Runway 8/26

Dimensions: 3500 x 70 ft. / 1067 x 21 m
Surface: asphalt
RUNWAY 8  RUNWAY 26
Latitude: 33-17.060333N33-17.080000N
Longitude: 116-40.522667W116-39.836167W
Elevation: 2873.0 ft.2914.0 ft.
Traffic pattern: leftleft
Obstructions: none200 ft. hill, 5200 ft. from runway

Gliderport Ownership and Management from official FAA records

Ownership: Privately-owned
Owner: WARNER SPRINGS RANCH RESORT, LLC
31930 HWY 79
WARNER SPRINGS, CA 92086
Phone 760-782-4200
SKY SAILING 31930 HWY 79.
Manager: BRET WILLAT
SKY SAILING 31930 HWY 79
WARNER SPRINGS, CA 92086
Phone 760-782-0404
LEASEE.

Gliderport Operational Statistics

Aircraft based on the field: 80
Single engine airplanes: 10
Gliders airplanes: 70
    

Instrument Procedures

There are no published instrument procedures at CL35.

Some nearby airports with instrument procedures:

L08 - Borrego Valley Airport (18 nm E)
KRNM - Ramona Airport (19 nm SW)
F70 - French Valley Airport (29 nm NW)
L18 - Fallbrook Community Airpark (29 nm W)
KSEE - Gillespie Field Airport (31 nm SW)
 
Loc | Ops | Rwys | IFR | FBO | Links
Com | Nav | Svcs | Stats | Notes
Area around CL35 (Warner Springs Gliderport)
 
Road maps at: MapQuest Bing Google
 
Aerial photo
WARNING: Photo may not be current or correct
Aerial photo of CL35 (Warner Springs Gliderport)
Photo by Steve Lupinacci
Photo taken 27-May-2008

Do you have a better or more recent aerial photo of Warner Springs Gliderport that you would like to share? If so, please send us your photo.

 
Sectional chart

 
Airport distance calculator
Flying to Warner Springs Gliderport? Find the distance to fly.

From to CL35

Sunrise and sunset
Times for 19-Apr-2019
 Local
(UTC-7)
 Zulu
(UTC)
Morning civil twilight05:4712:47
Sunrise06:1313:13
Sunset19:1902:19
Evening civil twilight19:4502:45

Current date and time
Zulu (UTC)  19-Apr-2019 21:27:26
Local (UTC-7)  19-Apr-2019 14:27:26
 
METAR
KL08 
18nm E 
192115Z AUTO VRB04KT 10SM CLR 34/M05 A2982 RMK AO2
KRNM 
20nm SW 
192053Z 29008KT 10SM SCT095 28/14 A2992 RMK AO2 SLP119 T02780139 56010
KF70 
29nm NW 
192115Z AUTO 22007KT 10SM CLR 29/09 A2990 RMK AO1
KL18 
29nm W 
192115Z AUTO 20010G14KT 10SM CLR 21/13 A2992 RMK AO2
KSEE 
32nm SW 
192047Z 24008KT 10SM SKC 26/13 A2992
KCRQ 
32nm W 
192053Z 25009KT 9SM OVC008 17/13 A2994 RMK AO2 SLP135 T01670128 55007
KTRM 
33nm NE 
192052Z AUTO 14010G15KT 10SM CLR 37/M03 A2979 RMK AO2 SLP091 T03671028 56024
KPSP 
33nm N 
192053Z 10008KT 10SM CLR 36/M02 A2984 RMK AO2 SLP102 T03611022 56026
KNFG 
33nm W 
192055Z 25010G16KT 7SM FEW015 FEW150 19/14 A2992 RMK AO2 SLP130 T01890139 55012 $
KNKX 
34nm SW 
192055Z 28010KT 10SM FEW020 SCT160 21/13 A2994 RMK AO2 SLP133 T02110128 55006
TAF
KCRQ 
32nm W 
191747Z 1918/2018 VRB04KT P6SM SCT250 FM191900 27008KT P6SM FEW008 SCT250 FM200200 VRB04KT 5SM HZ OVC008 FM201200 VRB04KT P6SM OVC012 FM201700 VRB04KT P6SM SCT012
KTRM 
33nm NE 
191732Z 1918/2018 VRB04KT P6SM SKC FM192000 14011KT P6SM SKC FM200300 33011KT P6SM SCT250
KPSP 
33nm N 
191732Z 1918/2018 VRB04KT P6SM SKC FM192000 10009KT P6SM SKC FM200100 33011G18KT P6SM SKC FM200600 32008KT P6SM SCT250 FM200900 VRB05KT P6SM SCT250
KNFG 
33nm W 
1915/2015 VRB05KT 9999 SKC QNH2994INS TEMPO 1915/1917 3200 BR BKN005 FM191800 22009KT 9999 SKC QNH2987INS TEMPO 1920/2001 24010G18KT FM200300 VRB05KT 9999 SCT020 QNH2990INS BECMG 2005/2007 VRB05KT 9999 BKN010 QNH2991INS T21/1922Z T11/2012Z
KNKX 
34nm SW 
1915/2015 VRB05KT 9999 SCT010 SCT200 QNH2992INS BECMG 1918/1920 29008KT 9999 SCT030 SCT250 QNH2985INS FM200330 26006KT 9999 BKN020 QNH2987INS T26/1921Z T12/2013Z
NOTAMs
Click for the latest NOTAMs
NOTAMs are issued by the DoD/FAA and will open in a separate window not controlled by AirNav.

 

 
 

Would you like to see your business listed on this page?

 If your business provides an interesting product or service to pilots, flight crews, aircraft, or users of the Warner Springs Gliderport, you should consider listing it here.  To start the listing process, click on the button below
 
Add a business
 

Other Pages about Warner Springs Gliderport

www.agcsc.org/warner_springs_info.html
 
Update a link
 
Copyright © AirNav, LLC. All rights reserved. Privacy Policy  Contact